Flight Track Log - Related Links

Times and Time Zones

All times are in EDT time to prevent confusion due to time zone crossing. See the N5352K flight status page for this flight to view local times or setup timezone preferences in your user account.

Time Position Orientation Groundspeed Altitude Reporting Facility
EDT Latitude Longitude Course Direction KTS MPH feet Rate Location/Type
Tue 09:03:37 AM 25.9130 -80.2790 85° East 76 87  Level FlightAware ADS-B
Tue 09:03:57 AM 25.9130 -80.2710 90° East 79 91 300 783 Climbing FlightAware ADS-B
Tue 09:04:23 AM 25.9140 -80.2620 83° East 72 83 600 667 Climbing FlightAware ADS-B
Tue 09:04:42 AM 25.9140 -80.2540 90° East 66 76 800 615 Climbing FlightAware ADS-B
Tue 09:05:02 AM 25.9140 -80.2480 90° East 68 78 1,000 600 Climbing FlightAware ADS-B
Tue 09:05:22 AM 25.9150 -80.2410 81° East 66 76 1,200 720 Climbing FlightAware ADS-B
Tue 09:05:27 AM 25.9160 -80.2390 61° Northeast 61 70 1,300 750 Climbing FlightAware ADS-B
Tue 09:05:38 AM 25.9190 -80.2380 17° North 68 78 1,400 750 Climbing FlightAware ADS-B
Tue 09:05:43 AM 25.9200 -80.2380 360° North 70 81 1,500 429 Climbing FlightAware ADS-B
Tue 09:05:52 AM 25.9240 -80.2380 360° North 66 76 1,500 414 Level FlightAware ADS-B
Tue 09:06:12 AM 25.9300 -80.2400 343° North 65 75 1,700 667 Climbing FlightAware ADS-B
Tue 09:06:37 AM 25.9380 -80.2420 347° North 65 75 2,000 833 Climbing FlightAware ADS-B
Tue 09:06:48 AM 25.9400 -80.2450 307° West 73 84 2,200 750 Climbing FlightAware ADS-B
Tue 09:06:53 AM 25.9410 -80.2470 299° West 70 81 2,200 621 Level FlightAware ADS-B
Tue 09:07:17 AM 25.9440 -80.2560 290° West 70 81 2,500 615 Climbing FlightAware ADS-B
Tue 09:07:32 AM 25.9460 -80.2610 294° West 70 81 2,600 514 Climbing FlightAware ADS-B
Tue 09:07:52 AM 25.9480 -80.2680 288° West 73 84 2,800 585 Climbing FlightAware ADS-B
Tue 09:08:13 AM 25.9500 -80.2760 286° West 72 83 3,000 450 Climbing FlightAware ADS-B
Tue 09:08:32 AM 25.9530 -80.2830 295° West 78 90 3,100 439 Climbing FlightAware ADS-B
Tue 09:08:54 AM 25.9560 -80.2910 293° West 89 102 3,300 600 Climbing FlightAware ADS-B
Tue 09:09:12 AM 25.9580 -80.3000 284° West 81 93 3,500 558 Climbing FlightAware ADS-B
Tue 09:09:37 AM 25.9610 -80.3100 288° West 82 94 3,700 400 Climbing FlightAware ADS-B
Tue 09:09:42 AM 25.9620 -80.3120 299° West 83 96 3,700 600 Level FlightAware ADS-B
Tue 09:09:57 AM 25.9660 -80.3170 312° West 81 93 3,900 514 Climbing FlightAware ADS-B
Tue 09:10:17 AM 25.9710 -80.3230 313° West 85 98 4,000 167 Climbing FlightAware ADS-B
Tue 09:10:33 AM 25.9750 -80.3290 307° West 96 110 4,000 171 Level FlightAware ADS-B
Tue 09:10:52 AM 25.9810 -80.3360 314° West 96 110 4,100 250 Climbing FlightAware ADS-B
Tue 09:10:57 AM 25.9830 -80.3380 318° Northwest 102 117 4,100  Level FlightAware ADS-B
Tue 09:11:24 AM 25.9870 -80.3450 302° West 105 121 4,100 -146 Level FlightAware ADS-B
Tue 09:11:38 AM 25.9900 -80.3590 283° West 109 125 4,000 -182 Descending FlightAware ADS-B
Tue 09:11:57 AM 25.9940 -80.3690 294° West 109 125 4,000  Level FlightAware ADS-B
Tue 09:12:13 AM 25.9960 -80.3770 286° West 111 128 4,000 194 Level FlightAware ADS-B
Tue 09:12:28 AM 25.9980 -80.3850 286° West 104 120 4,100 200 Climbing FlightAware ADS-B
Tue 09:12:43 AM 26.0000 -80.3940 284° West 102 117 4,100  Level FlightAware ADS-B
Tue 09:12:57 AM 26.0010 -80.4010 279° West 107 123 4,100  Level FlightAware ADS-B
Tue 09:13:18 AM 26.0020 -80.4120 276° West 109 125 4,100  Level FlightAware ADS-B
Tue 09:13:32 AM 26.0040 -80.4210 284° West 106 122 4,100  Level FlightAware ADS-B
Tue 09:13:48 AM 26.0050 -80.4290 278° West 108 124 4,100  Level FlightAware ADS-B
Tue 09:14:12 AM 26.0060 -80.4430 275° West 109 125 4,100  Level FlightAware ADS-B
Tue 09:14:27 AM 26.0060 -80.4510 270° West 109 125 4,100  Level FlightAware ADS-B
Tue 09:14:48 AM 26.0080 -80.4620 281° West 110 127 4,100  Level FlightAware ADS-B
Tue 09:15:08 AM 26.0090 -80.4740 275° West 108 124 4,100  Level FlightAware ADS-B
Tue 09:15:37 AM 26.0110 -80.4900 278° West 108 124 4,100  Level FlightAware ADS-B
Tue 09:15:53 AM 26.0120 -80.4980 278° West 108 124 4,100  Level FlightAware ADS-B
Tue 09:16:12 AM 26.0140 -80.5100 281° West 106 122 4,100 -154 Level FlightAware ADS-B
Tue 09:16:32 AM 26.0140 -80.5200 270° West 114 131 4,000  Descending FlightAware ADS-B
Tue 09:16:53 AM 26.0150 -80.5310 276° West 110 127 4,100  Climbing FlightAware ADS-B
Tue 09:17:17 AM 26.0160 -80.5460 274° West 111 128 4,000 -133 Descending FlightAware ADS-B
Tue 09:17:38 AM 26.0170 -80.5580 275° West 106 122 4,000 150 Level FlightAware ADS-B
Tue 09:17:57 AM 26.0200 -80.5680 288° West 104 120 4,100 207 Climbing FlightAware ADS-B
Tue 09:18:07 AM 26.0230 -80.5720 310° West 107 123 4,100  Level FlightAware ADS-B
Tue 09:18:17 AM 26.0250 -80.5770 294° West 103 119 4,100  Level FlightAware ADS-B
Tue 09:18:32 AM 26.0300 -80.5840 308° West 106 122 4,100  Level FlightAware ADS-B
Tue 09:18:48 AM 26.0350 -80.5900 313° West 101 116 4,100  Level FlightAware ADS-B
Tue 09:19:13 AM 26.0430 -80.6000 312° West 99 114 4,100  Level FlightAware ADS-B
Tue 09:19:34 AM 26.0500 -80.6080 314° West 100 115 4,100  Level FlightAware ADS-B
Tue 09:19:49 AM 26.0560 -80.6140 318° Northwest 101 116 4,100  Level FlightAware ADS-B
Tue 09:20:08 AM 26.0630 -80.6210 318° Northwest 108 124 4,100  Level FlightAware ADS-B
Tue 09:20:29 AM 26.0710 -80.6280 322° Northwest 107 123 4,100  Level FlightAware ADS-B
Tue 09:20:49 AM 26.0790 -80.6340 326° Northwest 98 113 4,100  Level FlightAware ADS-B
Tue 09:21:14 AM 26.0890 -80.6420 324° Northwest 108 124 4,100  Level FlightAware ADS-B
Tue 09:21:25 AM 26.0930 -80.6450 326° Northwest 110 127 4,100  Level FlightAware ADS-B
Tue 09:21:49 AM 26.1030 -80.6540 321° Northwest 106 122 4,100  Level FlightAware ADS-B
Tue 09:22:04 AM 26.1080 -80.6600 313° West 100 115 4,100  Level FlightAware ADS-B
Tue 09:22:24 AM 26.1160 -80.6680 318° Northwest 108 124 4,100  Level FlightAware ADS-B
Tue 09:22:43 AM 26.1230 -80.6750 318° Northwest 101 116 4,100  Level FlightAware ADS-B
Tue 09:23:03 AM 26.1300 -80.6830 314° West 101 116 4,100  Level FlightAware ADS-B
Tue 09:23:14 AM 26.1330 -80.6870 310° West 102 117 4,100 -162 Level FlightAware ADS-B
Tue 09:23:40 AM 26.1430 -80.6970 318° Northwest 102 117 4,000 -154 Descending FlightAware ADS-B
Tue 09:23:53 AM 26.1480 -80.7020 318° Northwest 108 124 4,000  Level FlightAware ADS-B
Tue 09:24:14 AM 26.1550 -80.7100 314° West 101 116 4,000  Level FlightAware ADS-B
Tue 09:24:50 AM 26.1660 -80.7220 316° Northwest 100 115 4,000  Level FlightAware ADS-B
Tue 09:25:11 AM 26.1750 -80.7320 315° West 99 114 4,000  Level FlightAware ADS-B
Tue 09:25:32 AM 26.1820 -80.7400 314° West 96 110 4,000  Level FlightAware ADS-B
Tue 09:25:52 AM 26.1890 -80.7470 318° Northwest 97 112 4,000 136 Level FlightAware ADS-B
Tue 09:26:16 AM 26.1980 -80.7560 318° Northwest 96 110 4,100 133 Climbing FlightAware ADS-B
Tue 09:26:37 AM 26.2050 -80.7630 318° Northwest 99 114 4,100  Level FlightAware ADS-B
Tue 09:26:57 AM 26.2110 -80.7710 310° West 102 117 4,100  Level FlightAware ADS-B
Tue 09:27:17 AM 26.2180 -80.7790 314° West 104 120 4,100  Level FlightAware ADS-B
Tue 09:27:36 AM 26.2240 -80.7860 314° West 97 112 4,100  Level FlightAware ADS-B
Tue 09:27:52 AM 26.2300 -80.7920 318° Northwest 96 110 4,100  Level FlightAware ADS-B
Tue 09:28:12 AM 26.2370 -80.7990 318° Northwest 102 117 4,100  Level FlightAware ADS-B
Tue 09:28:22 AM 26.2410 -80.8020 326° Northwest 97 112 4,100  Level FlightAware ADS-B
Tue 09:28:41 AM 26.2470 -80.8090 314° West 103 119 4,100  Level FlightAware ADS-B
Tue 09:28:56 AM 26.2530 -80.8140 323° Northwest 99 114 4,100  Level FlightAware ADS-B
Tue 09:29:17 AM 26.2600 -80.8220 314° West 99 114 4,100  Level FlightAware ADS-B
Tue 09:29:37 AM 26.2670 -80.8300 314° West 97 112 4,100  Level FlightAware ADS-B
Tue 09:29:57 AM 26.2730 -80.8370 314° West 107 123 4,100  Level FlightAware ADS-B
Tue 09:30:02 AM 26.2740 -80.8400 290° West 108 124 4,100  Level FlightAware ADS-B
Tue 09:30:12 AM 26.2750 -80.8460 281° West 109 125 4,100  Level FlightAware ADS-B
Tue 09:30:32 AM 26.2740 -80.8570 264° West 109 125 4,100  Level FlightAware ADS-B
Tue 09:30:56 AM 26.2710 -80.8710 257° West 108 124 4,100 -136 Level FlightAware ADS-B
Tue 09:31:16 AM 26.2690 -80.8820 259° West 109 125 4,000 -167 Descending FlightAware ADS-B
Tue 09:31:32 AM 26.2670 -80.8900 254° West 106 122 4,000  Level FlightAware ADS-B
Tue 09:31:57 AM 26.2640 -80.9040 257° West 108 124 4,000  Level FlightAware ADS-B
Tue 09:32:21 AM 26.2620 -80.9170 260° West 107 123 4,000 133 Level FlightAware ADS-B
Tue 09:32:42 AM 26.2600 -80.9280 259° West 105 121 4,100  Climbing FlightAware ADS-B
Tue 09:33:02 AM 26.2590 -80.9380 264° West 108 124 4,000  Descending FlightAware ADS-B
Tue 09:33:21 AM 26.2580 -80.9490 264° West 108 124 4,100  Climbing FlightAware ADS-B
Tue 09:33:52 AM 26.2570 -80.9650 266° West 108 124 4,000  Descending FlightAware ADS-B
Tue 09:34:22 AM 26.2560 -80.9830 266° West 109 125 4,100 150 Climbing FlightAware ADS-B
Tue 09:34:32 AM 26.2550 -80.9890 259° West 108 124 4,100  Level FlightAware ADS-B
Tue 09:34:52 AM 26.2530 -81.0000 259° West 110 127 4,100  Level FlightAware ADS-B
Tue 09:35:07 AM 26.2520 -81.0080 262° West 108 124 4,100  Level FlightAware ADS-B
Tue 09:35:27 AM 26.2500 -81.0200 259° West 107 123 4,100  Level FlightAware ADS-B
Tue 09:35:46 AM 26.2480 -81.0300 257° West 109 125 4,100 -154 Level FlightAware ADS-B
Tue 09:36:06 AM 26.2460 -81.0410 259° West 107 123 4,000 -167 Descending FlightAware ADS-B
Tue 09:36:22 AM 26.2440 -81.0500 256° West 108 124 4,000  Level FlightAware ADS-B
Tue 09:36:42 AM 26.2430 -81.0590 263° West 111 128 4,000  Level FlightAware ADS-B
Tue 09:37:06 AM 26.2410 -81.0730 261° West 108 124 4,000  Level FlightAware ADS-B
Tue 09:37:26 AM 26.2390 -81.0850 259° West 106 122 4,000  Level FlightAware ADS-B
Tue 09:37:37 AM 26.2380 -81.0910 259° West 104 120 4,000  Level FlightAware ADS-B
Tue 09:37:47 AM 26.2370 -81.0960 257° West 106 122 4,000 11 Level FlightAware ADS-B
Tue 09:38:03 AM 26.2360 -81.1050 263° West 103 119 11 Descending FlightAware ADS-B
Tue 09:38:24 AM 26.2350 -81.1160 264° West 103 119 474 Level FlightAware ADS-B
Tue 09:38:52 AM 26.2330 -81.1310 262° West 106 122 494 Level FlightAware ADS-B
Tue 09:39:11 AM 26.2320 -81.1420 264° West 109 125 523 Level FlightAware ADS-B
Tue 09:39:35 AM 26.2300 -81.1560 261° West 107 123 545 Level FlightAware ADS-B
Tue 09:39:56 AM 26.2290 -81.1670 264° West 108 124 576 Level FlightAware ADS-B
Tue 09:40:09 AM 26.2280 -81.1740 261° West 109 125 606 Level FlightAware ADS-B
Tue 09:40:28 AM 26.2270 -81.1850 264° West 108 124 626 Level FlightAware ADS-B
Tue 09:41:04 AM 26.2260 -81.2030 266° West 108 124 658 Level FlightAware ADS-B
Tue 09:41:35 AM 26.2240 -81.2220 263° West 108 124 728 Level FlightAware ADS-B
Tue 09:42:04 AM 26.2230 -81.2350 265° West 107 123 801 Level FlightAware ADS-B
Tue 09:42:46 AM 26.2180 -81.2580 256° West 107 123 885 Level FlightAware ADS-B
Tue 09:43:39 AM 26.2150 -81.2890 264° West 104 120 1,042 Level FlightAware ADS-B
Tue 09:44:17 AM 26.2130 -81.3070 263° West 105 121 1,344 Level FlightAware ADS-B
Tue 09:45:13 AM 26.2090 -81.3410 263° West 105 121 1,697 Level FlightAware ADS-B
Tue 09:45:48 AM 26.2070 -81.3570 262° West 104 120 2,764 Level FlightAware ADS-B
Tue 09:46:42 AM 26.2044 -81.3858 262° West 103 119 4,100 2,211 Climbing Miami Center
Tue 09:47:42 AM 26.2036 -81.4181 268° West 108 124 4,200  Climbing Miami Center
Tue 09:48:42 AM 26.2003 -81.4525 264° West 108 124 4,100 -400 Descending Miami Center
Tue 09:49:42 AM 26.1992 -81.4872 268° West 108 124 3,400 -500 Descending Miami Center
Tue 09:50:42 AM 26.1939 -81.5219 260° West 108 124 3,100 -300 Descending Miami Center
Tue 09:52:00 AM 26.1633 -81.5462 216° Southwest  Level FlightAware Approximate
Tue 09:59:00 AM 26.1500 -81.7667 283° West  Level FlightAware Approximate
Tue 10:00:00 AM 26.1524 -81.7756 283° West  Level Estimated
Tue 10:01:00 AM 26.1524 -81.7756 283° West  Level Estimated
Tue 10:02:00 AM 26.1524 -81.7756 283° West  Level Estimated
Tue 10:03:00 AM 26.1524 -81.7756 283° West  Level Estimated
Tue 10:04:00 AM 26.1524 -81.7756 283° West  Level Estimated
Tue 10:05:00 AM 26.1524 -81.7756 283° West  Level Estimated
Tue 10:06:00 AM 26.1524 -81.7756 283° West  Level Estimated
Tue 10:07:00 AM 26.1524 -81.7756 283° West  Level Estimated
Tue 10:08:00 AM 26.1524 -81.7756 283° West  Level Estimated
Tue 10:09:00 AM 26.1524 -81.7756 283° West  Level Estimated
Tue 10:10:00 AM 26.1524 -81.7756 283° West  Level Estimated
Tue 10:11:00 AM 26.1524 -81.7756 283° West  Level Estimated
Tue 10:12:00 AM 26.1524 -81.7756 283° West  Level Estimated
Tue 10:13:00 AM 26.1524 -81.7756 283° West  Level Estimated
Tue 10:14:00 AM 26.1524 -81.7756 283° West  Level Estimated
Tue 10:15:00 AM 26.1524 -81.7756 283° West  Level Estimated

Login

Don't have an account? Register now (free) for customized features, flight alerts, and more!